Bright Rainbow — 3FKA3 — position and weather

sailwx.info

Track history (hours):
 
Tides and Currents Weather Stations Pressure Air Temp Water Temp Dewpoint Dewpoint Depression Visibility Wind Speed Wind Dir Waves Ship Positions

Bright Rainbow

Last reported at 2018-Jul-20 13:07 UTC. Time now 2018-Jul-21 21:18 UTC.
Position N 01°18' E 103°22'.

Length 169 m; draft 9.4 m.

Type: Cargo ship. MMSI: 351246000.

Date/timePositionNaut miles runAvg speedWind from/ knotsBaromVisibWave heightAir tempDewpointWater temp
2018-Jul-20 13:07N 01°18' E 103°22'211.9
2018-Jul-20 12:59N 01°16' E 103°23'611.7
2018-Jul-20 12:30N 01°14' E 103°28'611.7
2018-Jul-20 12:00N 01°12' E 103°33'611.3
2018-Jul-20 11:30N 01°11' E 103°39'611.4
2018-Jul-20 10:59N 01°09' E 103°44'611.9
2018-Jul-20 10:30N 01°11' E 103°49'612.0
2018-Jul-20 10:00N 01°14' E 103°55'611.8
2018-Jul-20 09:30N 01°15' E 104°01'712.3
2018-Jul-20 08:56N 01°17' E 104°07'512.1
2018-Jul-20 08:30N 01°17' E 104°13'712.3
2018-Jul-20 07:57N 01°19' E 104°19'611.9
2018-Jul-20 07:28N 01°23' E 104°24'  
2018-Jul-14 04:16N 23°19' E 117°29'3 9.5
2018-Jul-14 03:56N 23°21' E 117°31'4 9.8
2018-Jul-14 03:30N 23°23' E 117°35'5 9.7
2018-Jul-14 03:00N 23°26' E 117°39'5 9.2
2018-Jul-14 02:30N 23°29' E 117°43'4 9.0
2018-Jul-14 02:00N 23°32' E 117°47'4 9.1
2018-Jul-14 01:30N 23°34' E 117°51'5 9.4
2018-Jul-14 01:00N 23°36' E 117°56'4 8.7
2018-Jul-14 00:30N 23°40' E 117°59'510.0
2018-Jul-14 00:00N 23°43' E 118°03'510.3
2018-Jul-13 23:30N 23°46' E 118°08'510.8
2018-Jul-13 23:00N 23°49' E 118°12'510.9
2018-Jul-13 22:30N 23°52' E 118°17'611.3
2018-Jul-13 22:00N 23°56' E 118°22'611.4
2018-Jul-13 21:28N 23°60' E 118°27'511.6
2018-Jul-13 21:00N 24°03' E 118°32'611.7
2018-Jul-13 20:30N 24°06' E 118°37'611.6
2018-Jul-13 20:00N 24°10' E 118°42'1012.1
2018-Jul-13 19:12N 24°15' E 118°51'  
Track history (hours):
 
Tides and Currents Weather Stations Pressure Air Temp Water Temp Dewpoint Dewpoint Depression Visibility Wind Speed Wind Dir Waves Ship Positions

Bright Rainbow

Last reported at 2018-Jul-20 13:07 UTC. Time now 2018-Jul-21 21:18 UTC.
Position N 01°18' E 103°22'.

Length 169 m; draft 9.4 m.

Type: Cargo ship. MMSI: 351246000.

Date/timePositionNaut miles runAvg speedWind from/ knotsBaromVisibWave heightAir tempDewpointWater temp
2018-Jul-20 13:07N 01°18' E 103°22'211.9
2018-Jul-20 12:59N 01°16' E 103°23'611.7
2018-Jul-20 12:30N 01°14' E 103°28'611.7
2018-Jul-20 12:00N 01°12' E 103°33'611.3
2018-Jul-20 11:30N 01°11' E 103°39'611.4
2018-Jul-20 10:59N 01°09' E 103°44'611.9
2018-Jul-20 10:30N 01°11' E 103°49'612.0
2018-Jul-20 10:00N 01°14' E 103°55'611.8
2018-Jul-20 09:30N 01°15' E 104°01'712.3
2018-Jul-20 08:56N 01°17' E 104°07'512.1
2018-Jul-20 08:30N 01°17' E 104°13'712.3
2018-Jul-20 07:57N 01°19' E 104°19'611.9
2018-Jul-20 07:28N 01°23' E 104°24'  
2018-Jul-14 04:16N 23°19' E 117°29'3 9.5
2018-Jul-14 03:56N 23°21' E 117°31'4 9.8
2018-Jul-14 03:30N 23°23' E 117°35'5 9.7
2018-Jul-14 03:00N 23°26' E 117°39'5 9.2
2018-Jul-14 02:30N 23°29' E 117°43'4 9.0
2018-Jul-14 02:00N 23°32' E 117°47'4 9.1
2018-Jul-14 01:30N 23°34' E 117°51'5 9.4
2018-Jul-14 01:00N 23°36' E 117°56'4 8.7
2018-Jul-14 00:30N 23°40' E 117°59'510.0
2018-Jul-14 00:00N 23°43' E 118°03'510.3
2018-Jul-13 23:30N 23°46' E 118°08'510.8
2018-Jul-13 23:00N 23°49' E 118°12'510.9
2018-Jul-13 22:30N 23°52' E 118°17'611.3
2018-Jul-13 22:00N 23°56' E 118°22'611.4
2018-Jul-13 21:28N 23°60' E 118°27'511.6
2018-Jul-13 21:00N 24°03' E 118°32'611.7
2018-Jul-13 20:30N 24°06' E 118°37'611.6
2018-Jul-13 20:00N 24°10' E 118°42'1012.1
2018-Jul-13 19:12N 24°15' E 118°51'  

Dump ship's entire track history